Latest Weather Observations for Cessnock Airport

IDN60801

Issued at 7:13 pm EDT Tuesday 31 March 2015 (issued every 30 minutes, with the page automatically refreshed every 10 minutes)

About weather observations | Map of weather stations | Latest weather observations for NSW | Other Formats
Station Details ID: 061260 Name: CESSNOCK AIRPORT AWS Lat: -32.79 Lon: 151.34 Height: 61.0 m
Data from the previous 72 hours. | See also: Recent months at Cessnock Airport
Date/Time
EDT
Temp
°C
App
Temp
°C
Dew
Point
Rel
Hum
%
Delta-T
°C
Wind Press
QNH
hPa
Press
MSL
hPa
Rain
since 9 am
mm
Dir
 
Spd
km/h
Gust
km/h
Spd
kts
Gust
kts
31/07:00pm 20.9 20.8 15.9 73 3.0 SSE 11 17 6 9 1023.8 1023.6 0.0
31/06:30pm 21.1 20.6 15.9 72 3.1 SE 13 17 7 9 1023.9 1023.7 0.0
31/06:00pm 21.5 19.7 15.6 69 3.5 SE 19 24 10 13 1023.7 1023.5 0.0
31/05:30pm 22.2 20.5 15.8 67 3.8 SE 19 26 10 14 1023.3 1023.1 0.0
31/05:00pm 21.9 20.7 16.0 69 3.5 SE 17 24 9 13 1023.2 1022.9 0.0
31/04:30pm 22.1 21.0 16.4 70 3.5 SE 17 22 9 12 1023.4 1023.2 0.0
31/04:00pm 22.0 20.9 16.3 70 3.4 SE 17 24 9 13 1023.4 1023.2 0.0
31/03:30pm 21.4 19.6 16.1 72 3.2 ESE 20 28 11 15 1023.6 1023.4 0.0
31/03:00pm 21.5 19.3 16.0 71 3.3 SE 22 30 12 16 1023.8 1023.6 0.0
31/02:30pm 21.6 21.0 16.6 73 3.0 E 15 20 8 11 1024.0 1023.8 0.0
31/02:00pm 22.0 20.7 15.8 68 3.7 SE 17 20 9 11 1024.1 1023.9 0.0
31/01:30pm 21.2 19.5 15.7 71 3.3 SE 19 24 10 13 1024.5 1024.3 0.0
31/01:00pm 21.7 20.4 15.8 69 3.5 ESE 17 20 9 11 1024.9 1024.7 0.0
31/12:30pm 21.7 20.5 16.2 71 3.3 ESE 17 26 9 14 1025.2 1025.0 0.0
31/12:00pm 21.8 20.4 16.5 72 3.2 ESE 19 28 10 15 1025.6 1025.4 0.0
31/11:30am 20.7 20.6 16.9 79 2.3 ESE 13 17 7 9 1025.9 1025.7 0.0
31/11:00am 19.8 20.7 17.6 87 1.3 SE 9 17 5 9 1026.1 1025.9 0.0
31/10:30am 19.4 20.8 17.9 91 0.9 SSW 7 11 4 6 1026.2 1026.0 0.0
31/10:00am 18.8 20.0 17.3 91 0.9 SSE 7 11 4 6 1026.2 1026.0 0.0
31/09:30am 18.6 20.1 17.6 94 0.6 SE 6 9 3 5 1025.9 1025.7 0.0
31/09:00am 17.9 19.2 17.1 95 0.5 SSE 6 7 3 4 1025.7 1025.5 2.4
31/08:30am 17.1 18.0 16.6 97 0.3 S 7 9 4 5 1025.4 1025.2 2.4
31/08:00am 16.7 17.7 16.4 98 0.2 ESE 6 9 3 5 1025.1 1024.9 2.4
31/07:30am 15.6 16.1 15.1 97 0.3 SSE 6 7 3 4 1024.5 1024.3 2.4
31/07:00am 15.6 16.1 15.1 97 0.3 SSE 6 6 3 3 1024.3 1024.1 2.4
31/06:30am 15.7 16.3 15.2 97 0.3 SSE 6 7 3 4 1024.0 1023.8 2.4
31/06:00am 16.1 16.8 15.6 97 0.3 SSE 6 7 3 4 1023.7 1023.5 2.4
31/05:30am 16.1 16.6 15.6 97 0.3 SE 7 7 4 4 1023.4 1023.2 2.4
31/05:00am 16.4 17.7 16.1 98 0.2 E 4 7 2 4 1023.4 1023.2 2.4
31/04:30am 15.8 17.5 15.3 97 0.3 CALM 0 0 0 0 1023.2 1022.9 2.4
31/04:00am 16.3 17.1 15.8 97 0.3 SW 6 7 3 4 1023.3 1023.1 2.4
31/03:30am 16.6 17.5 16.0 96 0.4 S 6 7 3 4 1023.3 1023.1 2.4
31/03:00am 17.1 18.2 16.5 96 0.4 SSW 6 7 3 4 1023.4 1023.2 2.4
31/02:30am 17.6 18.8 16.8 95 0.5 SSW 6 7 3 4 1023.6 1023.4 2.4
31/02:00am 17.8 18.5 17.0 95 0.5 S 9 11 5 6 1024.0 1023.8 2.4
31/01:30am 17.8 18.2 17.2 96 0.4 S 11 15 6 8 1024.0 1023.8 2.4
31/01:00am 17.6 18.0 17.3 98 0.2 S 11 15 6 8 1024.0 1023.8 2.4
31/12:30am 17.3 18.3 16.8 97 0.3 WSW 7 9 4 5 1024.1 1023.9 2.4
31/12:00am 17.5 18.8 17.0 97 0.3 SW 6 7 3 4 1024.3 1024.1 2.4
 
Date/Time
EDT
Temp
°C
App
Temp
°C
Dew
Point
Rel
Hum
%
Delta-T
°C
Wind Press
QNH
hPa
Press
MSL
hPa
Rain
since 9 am
mm
Dir
 
Spd
km/h
Gust
km/h
Spd
kts
Gust
kts
30/11:30pm 17.4 18.0 16.8 96 0.4 S 9 9 5 5 1024.5 1024.3 2.2
30/11:00pm 18.1 19.6 17.5 96 0.4 SSW 6 7 3 4 1024.8 1024.6 2.2
30/10:30pm 18.4 19.3 17.6 95 0.5 SE 9 11 5 6 1024.9 1024.7 2.2
30/10:00pm 18.4 21.1 17.8 96 0.4 CALM 0 0 0 0 1024.9 1024.7 2.2
30/09:30pm 18.2 19.1 17.6 96 0.4 SSW 9 11 5 6 1024.8 1024.6 2.2
30/09:00pm 18.3 19.3 17.7 96 0.4 S 9 11 5 6 1024.5 1024.3 2.0
30/08:30pm 18.5 19.8 17.5 94 0.6 S 7 9 4 5 1024.0 1023.8 2.0
30/08:00pm 19.0 20.4 17.3 90 1.0 NE 6 7 3 4 1023.9 1023.7 1.4
30/07:30pm 19.6 19.6 17.2 86 1.5 ENE 13 22 7 12 1023.5 1023.3 0.6
30/07:00pm 20.7 22.3 18.3 86 1.5 S 7 9 4 5 1022.9 1022.6 0.4
30/06:30pm 21.6 21.7 17.4 77 2.6 S 13 20 7 11 1022.4 1022.2 0.0
30/06:00pm 22.2 22.2 17.1 73 3.1 SE 13 17 7 9 1022.0 1021.8 0.0
30/05:30pm 22.4 21.9 16.9 71 3.4 SE 15 20 8 11 1021.7 1021.5 0.0
30/05:00pm 22.6 22.2 17.1 71 3.4 ESE 15 22 8 12 1021.6 1021.4 0.0
30/04:30pm 23.0 21.7 16.8 68 3.8 SE 19 24 10 13 1021.5 1021.3 0.0
30/04:00pm 23.4 22.2 16.2 64 4.4 ESE 17 22 9 12 1021.4 1021.2 0.0
30/03:30pm 23.3 21.5 15.6 62 4.6 ESE 19 26 10 14 1021.5 1021.3 0.0
30/03:00pm 23.3 22.8 17.7 71 3.5 SE 17 22 9 12 1021.7 1021.5 0.0
30/02:30pm 23.0 23.0 17.2 70 3.6 ESE 13 17 7 9 1021.8 1021.6 0.0
30/02:00pm 22.3 22.2 17.0 72 3.2 ESE 13 20 7 11 1022.1 1021.9 0.0
30/01:30pm 22.0 22.3 16.9 73 3.1 ESE 11 15 6 8 1022.6 1022.3 0.0
30/01:00pm 22.1 21.6 16.8 72 3.2 E 15 28 8 15 1022.8 1022.5 0.0
30/12:30pm 23.0 23.7 17.0 69 3.7 NNE 9 11 5 6 1022.8 1022.5 0.0
30/12:00pm 23.5 23.7 15.8 62 4.6 NE 9 11 5 6 1022.8 1022.5 0.0
30/11:30am 22.9 23.9 16.4 67 4.0 SE 6 11 3 6 1022.8 1022.5 0.0
30/11:00am 21.8 23.8 17.0 74 2.9 N 2 7 1 4 1023.2 1022.9 0.0
30/10:30am 21.1 23.5 17.9 82 2.0 SW 2 7 1 4 1023.4 1023.2 0.0
30/10:00am 19.9 21.4 17.5 86 1.5 SW 6 9 3 5 1023.6 1023.4 0.0
30/09:30am 19.5 20.6 18.0 91 0.9 SW 9 13 5 7 1023.8 1023.6 0.0
30/09:00am 18.9 19.9 17.7 93 0.7 SSW 9 11 5 6 1023.7 1023.5 0.4
30/08:30am 18.9 19.7 17.4 91 0.9 SE 9 13 5 7 1024.0 1023.8 0.4
30/08:00am 18.8 19.4 16.9 89 1.1 N 9 13 5 7 1024.0 1023.8 0.0
30/07:30am 19.0 21.4 17.0 88 1.2 CALM 0 6 0 3 1023.3 1023.1 0.0
30/07:00am 18.7 18.9 16.7 88 1.2 SW 11 13 6 7 1022.7 1022.4 0.0
30/06:30am 18.7 19.3 16.8 89 1.1 SW 9 13 5 7 1022.1 1021.9 0.0
30/06:00am 18.2 19.1 16.5 90 1.0 SSE 7 11 4 6 1021.7 1021.5 0.0
30/05:30am 18.5 19.1 16.8 90 1.0 WSW 9 15 5 8 1021.1 1020.9 0.0
30/05:00am 17.6 18.7 16.5 93 0.7 NW 6 9 3 5 1021.2 1021.0 0.0
30/04:30am 17.4 19.4 16.1 92 0.8 CALM 0 0 0 0 1020.6 1020.4 0.0
30/04:00am 17.5 19.5 16.0 91 0.9 CALM 0 0 0 0 1020.7 1020.5 0.0
30/03:30am 17.6 19.7 16.3 92 0.8 CALM 0 6 0 3 1020.7 1020.5 0.0
30/03:00am 17.7 18.6 16.2 91 0.9 SSW 6 7 3 4 1020.8 1020.6 0.0
30/02:30am 17.6 19.3 16.1 91 0.9 S 2 6 1 3 1021.2 1021.0 0.0
30/02:00am 17.5 19.4 15.8 90 1.0 CALM 0 0 0 0 1021.3 1021.1 0.0
30/01:30am 17.6 18.4 15.9 90 1.0 SE 6 7 3 4 1021.3 1021.1 0.0
30/01:00am 18.0 18.9 16.5 91 0.9 SSW 7 9 4 5 1021.6 1021.4 0.0
30/12:30am 18.0 18.6 16.7 92 0.8 SSW 9 11 5 6 1021.7 1021.5 0.0
30/12:00am 17.1 17.8 16.0 93 0.6 SSW 7 9 4 5 1021.7 1021.5 0.0
 
Date/Time
EDT
Temp
°C
App
Temp
°C
Dew
Point
Rel
Hum
%
Delta-T
°C
Wind Press
QNH
hPa
Press
MSL
hPa
Rain
since 9 am
mm
Dir
 
Spd
km/h
Gust
km/h
Spd
kts
Gust
kts
29/11:30pm 17.0 17.7 15.5 91 0.9 SW 6 7 3 4 1021.9 1021.7 0.0
29/11:00pm 16.9 17.3 15.4 91 0.9 SW 7 9 4 5 1022.0 1021.8 0.0
29/10:30pm 16.8 17.1 15.0 89 1.0 SW 7 9 4 5 1022.0 1021.8 0.0
29/10:00pm 17.8 17.9 15.6 87 1.3 SW 9 11 5 6 1021.9 1021.7 0.0
29/09:30pm 18.6 19.3 16.2 86 1.4 SSW 7 11 4 6 1021.5 1021.3 0.0
29/09:00pm 19.0 19.3 16.0 83 1.8 S 9 11 5 6 1021.3 1021.1 0.0
29/08:30pm 19.5 20.2 16.0 80 2.1 S 7 9 4 5 1021.3 1021.1 0.0
29/08:00pm 19.8 20.1 15.9 78 2.3 S 9 15 5 8 1021.1 1020.9 0.0
29/07:30pm 20.5 20.4 15.9 75 2.8 SSE 11 13 6 7 1020.9 1020.7 0.0
29/07:00pm 22.0 22.3 16.1 69 3.6 SSE 9 13 5 7 1020.6 1020.4 0.0
29/06:30pm 22.8 21.9 15.9 65 4.2 SE 15 20 8 11 1020.4 1020.2 0.0
29/06:00pm 23.7 22.0 15.7 61 4.8 ESE 19 26 10 14 1020.4 1020.2 0.0
29/05:30pm 24.5 23.0 16.2 60 5.1 ESE 19 24 10 13 1020.1 1019.9 0.0
29/05:00pm 25.0 23.2 15.9 57 5.5 ESE 20 28 11 15 1020.0 1019.8 0.0
29/04:30pm 26.6 24.8 15.9 51 6.6 ESE 20 28 11 15 1019.8 1019.6 0.0
29/04:00pm 26.5 24.3 14.9 49 7.0 ESE 20 30 11 16 1019.4 1019.2 0.0
29/03:30pm 27.9 26.5 9.7 32 10.2 E 7 15 4 8 1019.6 1019.4 0.0
29/03:00pm 27.4 25.8 10.2 34 9.6 S 9 11 5 6 1019.9 1019.7 0.0
29/02:30pm 26.9 25.6 11.4 38 8.9 NE 9 17 5 9 1020.3 1020.1 0.0
29/02:00pm 26.5 25.8 13.3 44 7.7 ENE 9 15 5 8 1020.7 1020.5 0.0
29/01:30pm 26.1 25.9 13.6 46 7.4 NE 7 13 4 7 1021.2 1021.0 0.0
29/01:00pm 25.1 24.8 13.3 48 6.9 N 7 11 4 6 1021.6 1021.4 0.0
29/12:30pm 24.6 24.0 13.5 50 6.5 ENE 9 13 5 7 1022.1 1021.9 0.0
29/12:00pm 24.0 24.1 13.8 53 6.0 NW 6 11 3 6 1022.8 1022.5 0.0
29/11:30am 22.2 21.6 13.5 57 5.0 N 9 15 5 8 1023.0 1022.7 0.0
29/11:00am 23.0 21.8 14.0 57 5.3 E 13 20 7 11 1022.9 1022.6 0.0
29/10:30am 23.1 22.1 14.7 59 5.0 ENE 13 20 7 11 1022.9 1022.6 0.0
29/10:00am 21.7 21.3 14.1 62 4.4 NE 9 13 5 7 1023.3 1023.1 0.0
29/09:30am 20.1 20.2 14.0 68 3.5 NNE 6 7 3 4 1023.3 1023.1 0.0
29/09:00am 19.0 20.5 14.7 76 2.5 CALM 0 0 0 0 1023.3 1023.1 0.0
29/08:30am 16.7 18.1 14.3 86 1.4 CALM 0 0 0 0 1022.9 1022.6 0.0
29/08:00am 14.7 15.9 13.9 95 0.4 CALM 0 4 0 2 1022.8 1022.5 0.0
29/07:30am 13.8 14.8 13.3 97 0.3 CALM 0 0 0 0 1022.4 1022.2 0.0
29/07:00am 13.1 13.9 12.5 96 0.3 CALM 0 0 0 0 1022.0 1021.8 0.0
29/06:30am 13.2 13.9 12.3 94 0.5 CALM 0 0 0 0 1021.6 1021.4 0.0
29/06:00am 13.6 14.4 12.7 94 0.5 CALM 0 0 0 0 1021.3 1021.1 0.0
29/05:30am 14.2 15.2 13.1 93 0.6 CALM 0 0 0 0 1021.4 1021.2 0.0
29/05:00am 14.2 15.2 13.2 94 0.6 CALM 0 0 0 0 1021.3 1021.1 0.0
29/04:30am 13.8 14.7 12.9 94 0.5 CALM 0 0 0 0 1021.5 1021.3 0.0
29/04:00am 13.9 14.8 12.8 93 0.6 CALM 0 0 0 0 1021.2 1021.0 0.0
29/03:30am 13.8 14.7 13.0 95 0.4 CALM 0 0 0 0 1021.2 1021.0 0.0
29/03:00am 13.3 14.1 12.7 96 0.3 CALM 0 0 0 0 1021.7 1021.5 0.0
29/02:30am 12.7 13.0 12.2 97 0.3 SSW 2 7 1 4 1021.9 1021.7 0.0
29/02:00am 11.5 11.8 11.0 97 0.3 CALM 0 0 0 0 1022.1 1021.9 0.0
29/01:30am 11.2 11.4 10.7 97 0.3 CALM 0 0 0 0 1022.1 1021.9 0.0
29/01:00am 11.0 11.2 10.4 96 0.3 CALM 0 0 0 0 1022.4 1022.2 0.0
29/12:30am 11.6 12.0 11.1 97 0.3 CALM 0 0 0 0 1022.3 1022.1 0.0
29/12:00am 11.3 11.5 10.7 96 0.3 CALM 0 0 0 0 1022.8 1022.5 0.0
 
Date/Time
EDT
Temp
°C
App
Temp
°C
Dew
Point
Rel
Hum
%
Delta-T
°C
Wind Press
QNH
hPa
Press
MSL
hPa
Rain
since 9 am
mm
Dir
 
Spd
km/h
Gust
km/h
Spd
kts
Gust
kts
28/11:30pm 11.6 11.9 10.8 95 0.4 CALM 0 0 0 0 1023.1 1022.8 0.0
28/11:00pm 12.0 12.3 10.9 93 0.6 CALM 0 4 0 2 1023.2 1022.9 0.0
28/10:30pm 12.7 12.0 11.4 92 0.7 SSW 6 7 3 4 1023.2 1022.9 0.0
28/10:00pm 12.4 11.4 11.0 91 0.7 SW 7 11 4 6 1023.3 1023.1 0.0
28/09:30pm 13.5 12.8 12.1 91 0.8 WSW 7 9 4 5 1023.1 1022.8 0.0
28/09:00pm 14.3 13.6 12.0 86 1.2 WSW 7 9 4 5 1022.9 1022.6 0.0
28/08:30pm 15.6 15.2 12.4 81 1.8 SSW 6 7 3 4 1022.3 1022.1 0.0
28/08:00pm 16.7 16.1 12.3 75 2.4 S 7 9 4 5 1022.0 1021.8 0.0
28/07:30pm 18.0 17.5 12.2 69 3.2 SE 6 7 3 4 1021.6 1021.4 0.0

Other Formats:

Comma delimited format used in spreadsheet applications
http://www.bom.gov.au/fwo/IDN60801/IDN60801.95771.axf

JavaScript Object Notation format (JSON) in row-major order
http://www.bom.gov.au/fwo/IDN60801/IDN60801.95771.json